Latest Coastal Weather Observations for Cairns

IDQ60701

Issued at 7:51 am EST Tuesday 1 September 2015 (issued every 10 minutes, with the page automatically refreshed every 10 minutes)

About coastal observations | Map of coastal stations | Coastal observations for QLD | Marine services | Other Formats
Station Details ID: 031011 Name: CAIRNS AERO Lat: -16.87 Lon: 145.75 Height: 2.22 m
Data from the previous 72 hours. | See also: Recent months at Cairns
Date/Time
EST
Temp

°C
Wind Pressure Rain
since 9am
mm
Weather Cloud Vis
km
Sea
Height
m
Swell
Dir
 
Speed
knots
Gust
knots
hPa Trend Height
m
Period
s
Dir
01/07:30am 21.8 W 1 4 1016.8 - 0.0 - Mostly clear 10 - - - -
01/07:00am 21.2 S 4 7 1016.3 - 0.0 - Mostly clear 10 - - - -
01/06:30am 20.7 S 4 8 1016.0 - 0.0 - Mostly clear 10 - - - -
01/06:00am 21.1 CALM 0 0 1015.4 - 0.0 - Cloudy 10 - - - -
01/05:30am 20.8 SSE 5 7 1015.3 - 0.0 - Mostly clear 10 - - - -
01/05:00am 20.8 SSE 3 4 1015.1 - 0.0 - Mostly clear 10 - - - -
01/04:30am 21.5 CALM 0 2 1014.9 - 0.0 - Mostly clear 10 - - - -
01/04:00am 21.3 CALM 0 0 1014.9 - 0.0 - Mostly clear 10 - - - -
01/03:30am 21.5 W 4 5 1014.9 - 0.0 - Mostly clear 10 - - - -
01/03:00am 22.1 WSW 4 6 1014.7 - 0.0 - Mostly cloudy 10 - - - -
01/02:30am 21.9 SE 6 8 1014.9 - 0.0 - Mostly clear 10 - - - -
01/02:00am 21.4 CALM 0 0 1015.1 - 0.0 - Mostly clear 10 - - - -
01/01:30am 21.3 W 3 4 1015.3 - 0.0 - Mostly clear 10 - - - -
01/01:00am 21.3 SSE 5 8 1015.6 - 0.0 - Mostly clear 10 - - - -
01/12:30am 21.4 SSE 2 5 1015.8 - 0.0 - Mostly clear 10 - - - -
01/12:00am 20.8 CALM 0 0 1015.8 - 0.0 - Mostly cloudy 10 - - - -
 
Date/Time
EST
Temp

°C
Wind Pressure Rain
since 9am
mm
Weather Cloud Vis
km
Sea
Height
m
Swell
Dir
 
Speed
knots
Gust
knots
hPa Trend Height
m
Period
s
Dir
31/11:30pm 20.5 CALM 0 0 1016.0 - 0.0 - Mostly clear 10 - - - -
31/11:00pm 20.7 CALM 0 0 1016.0 - 0.0 - Mostly clear 10 - - - -
31/10:30pm 21.2 CALM 0 0 1016.0 - 0.0 - Mostly clear 10 - - - -
31/10:00pm 21.1 CALM 0 0 1016.0 - 0.0 - Mostly clear 10 - - - -
31/09:30pm 21.4 CALM 0 0 1015.8 - 0.0 - Mostly clear 10 - - - -
31/09:00pm 21.8 CALM 0 0 1015.7 - 0.0 - Mostly clear 10 - - - -
31/08:30pm 22.5 CALM 0 0 1015.5 - 0.0 - Mostly clear 10 - - - -
31/08:00pm 23.7 E 5 6 1015.2 - 0.0 - Mostly clear 10 - - - -
31/07:30pm 23.8 E 5 7 1014.8 - 0.0 - Mostly clear 10 - - - -
31/07:00pm 23.9 E 5 7 1014.4 - 0.0 - Mostly clear 10 - - - -
31/06:30pm 23.8 ENE 5 6 1014.0 - 0.0 - Mostly clear 10 - - - -
31/06:00pm 24.2 NE 6 8 1013.7 - 0.0 - Partly cloudy 10 - - - -
31/05:30pm 24.7 NE 7 10 1013.6 - 0.0 - Mostly clear 10 - - - -
31/05:00pm 25.6 NE 8 11 1013.4 - 0.0 - Mostly clear 10 - - - -
31/04:30pm 25.8 NE 8 10 1013.3 - 0.0 - Mostly clear 10 - - - -
31/04:00pm 25.8 NNE 9 14 1013.1 - 0.0 - Mostly clear 10 - - - -
31/03:30pm 26.2 NE 9 12 1013.1 - 0.0 - Mostly clear 10 - - - -
31/03:00pm 26.0 NNE 8 12 1013.4 S 0.0 Fine Mostly clear 30 - - - -
31/02:30pm 26.2 NE 9 13 1013.9 - 0.0 - Mostly clear 10 - - - -
31/02:00pm 26.4 NNE 9 13 1014.4 - 0.0 - Mostly clear 10 - - - -
31/01:30pm 26.6 NNE 10 14 1014.9 - 0.0 - Mostly clear 10 - - - -
31/01:00pm 27.2 NE 10 14 1015.2 - 0.0 - Mostly clear 10 - - - -
31/12:30pm 27.2 NE 9 13 1015.4 - 0.0 - Mostly clear 10 - - - -
31/12:00pm 26.5 NE 9 11 1015.5 - 0.0 - Mostly clear 10 - - - -
31/11:30am 26.9 NNE 8 14 1016.0 - 0.0 - Mostly clear 10 - - - -
31/11:00am 26.2 NE 7 9 1016.5 - 0.0 - Mostly clear 10 - - - -
31/10:30am 27.4 NNE 7 9 1016.8 - 0.0 - Mostly clear 10 - - - -
31/10:00am 27.0 E 5 6 1017.1 - 0.0 - Mostly clear 10 - - - -
31/09:30am 26.0 ESE 5 8 1017.2 - 0.0 - Mostly clear 10 - - - -
31/09:00am 25.3 SE 7 9 1017.0 R 0.0 Fine Mostly clear 30 - - - -
31/08:30am 24.1 SE 6 7 1016.9 - 0.0 - Mostly clear 10 - - - -
31/08:00am 23.2 SE 8 10 1016.8 - 0.0 - Mostly clear 10 - - - -
31/07:30am 20.8 WNW 2 4 1016.6 - 0.0 - Mostly clear 10 - - - -
31/07:00am 20.1 CALM 0 5 1016.1 - 0.0 - Mostly clear 10 - - - -
31/06:30am 19.6 CALM 0 4 1015.8 - 0.0 - Mostly clear 10 - - - -
31/06:00am 19.7 W 2 4 1015.3 - 0.0 - Partly cloudy 10 - - - -
31/05:30am 20.0 SSW 3 6 1015.0 - 0.0 - Mostly clear 10 - - - -
31/05:00am 19.7 S 4 5 1014.9 - 0.0 - Mostly clear 10 - - - -
31/04:30am 20.2 S 1 5 1014.8 - 0.0 - Mostly clear 10 - - - -
31/04:00am 20.0 SW 3 4 1014.8 - 0.0 - Mostly clear 10 - - - -
31/03:30am 21.2 SSE 5 7 1014.8 - 0.0 - Mostly clear 10 - - - -
31/03:00am 20.5 CALM 0 0 1014.9 - 0.0 - Mostly clear 10 - - - -
31/02:30am 20.7 WNW 2 4 1015.0 - 0.0 - Mostly clear 10 - - - -
31/02:00am 20.7 CALM 0 0 1015.2 - 0.0 - Mostly clear 10 - - - -
31/01:30am 20.9 W 3 4 1015.4 - 0.0 - Mostly clear 10 - - - -
31/01:00am 20.2 CALM 0 0 1015.6 - 0.0 - Mostly clear 10 - - - -
31/12:30am 21.0 CALM 0 0 1015.7 - 0.0 - Partly cloudy 10 - - - -
31/12:00am 20.9 CALM 0 0 1015.9 - 0.0 - Partly cloudy 10 - - - -
 
Date/Time
EST
Temp

°C
Wind Pressure Rain
since 9am
mm
Weather Cloud Vis
km
Sea
Height
m
Swell
Dir
 
Speed
knots
Gust
knots
hPa Trend Height
m
Period
s
Dir
30/11:30pm 21.0 CALM 0 0 1016.0 - 0.0 - Mostly clear 10 - - - -
30/11:00pm 21.2 CALM 0 0 1016.1 - 0.0 - Mostly clear 10 - - - -
30/10:30pm 21.6 CALM 0 0 1016.1 - 0.0 - Mostly clear 10 - - - -
30/10:00pm 22.3 CALM 0 0 1016.2 - 0.0 - Mostly clear 10 - - - -
30/09:30pm 22.0 CALM 0 0 1016.1 - 0.0 - Mostly clear 10 - - - -
30/09:00pm 23.3 ENE 3 5 1016.0 - 0.0 - Partly cloudy 10 - - - -
30/08:30pm 23.7 ENE 4 5 1015.9 - 0.0 - Mostly clear 10 - - - -
30/08:00pm 23.7 ENE 3 5 1015.6 - 0.0 - Mostly clear 10 - - - -
30/07:30pm 23.5 ENE 5 7 1015.2 - 0.0 - Mostly clear 10 - - - -
30/07:00pm 23.6 NE 5 7 1014.9 - 0.0 - Mostly clear 10 - - - -
30/06:30pm 23.5 NE 5 7 1014.6 - 0.0 - Mostly clear 10 - - - -
30/06:00pm 23.8 NNE 6 8 1014.1 - 0.0 - Partly cloudy 10 - - - -
30/05:30pm 24.5 NNE 7 9 1014.0 - 0.0 - Mostly clear 10 - - - -
30/05:00pm 25.0 NNE 10 14 1013.8 - 0.0 - Mostly clear 10 - - - -
30/04:30pm 25.9 NE 10 14 1013.6 - 0.0 - Mostly clear 10 - - - -
30/04:00pm 26.2 NE 11 15 1013.6 - 0.0 - Mostly clear 10 - - - -
30/03:30pm 26.4 NE 10 14 1013.7 - 0.0 - Mostly clear 10 - - - -
30/03:00pm 26.5 NNE 10 14 1013.8 F 0.0 Fine Mostly clear 30 - - - -
30/02:30pm 27.1 NE 9 13 1014.3 - 0.0 - Mostly clear 10 - - - -
30/02:00pm 26.8 NE 10 14 1014.8 - 0.0 - Mostly clear 10 - - - -
30/01:30pm 26.9 NE 10 14 1015.2 - 0.0 - Mostly clear 10 - - - -
30/01:00pm 26.4 NE 9 14 1015.6 - 0.0 - Mostly clear 10 - - - -
30/12:30pm 26.7 NE 9 13 1016.0 - 0.0 - Mostly clear 10 - - - -
30/12:00pm 27.8 NE 9 12 1016.4 - 0.0 - Partly cloudy 10 - - - -
30/11:30am 27.5 NNE 8 10 1017.1 - 0.0 - Mostly clear 10 - - - -
30/11:00am 27.1 E 7 9 1017.7 - 0.0 - Mostly clear 10 - - - -
30/10:30am 27.0 SE 6 9 1018.2 - 0.0 - Mostly clear 10 - - - -
30/10:00am 25.9 SSE 7 9 1018.4 - 0.0 - Mostly clear 10 - - - -
30/09:30am 25.8 SSE 7 14 1018.3 - 0.0 - Mostly clear 10 - - - -
30/09:00am 24.9 SSE 7 9 1018.0 R 0.0 Fine Mostly clear 30 - - - -
30/08:30am 22.2 W 1 4 1018.0 - 0.0 - Mostly clear 10 - - - -
30/08:00am 20.5 N 1 4 1017.7 - 0.0 - Mostly clear 10 - - - -
30/07:30am 18.9 W 4 5 1017.3 - 0.0 - Mostly clear 10 - - - -
30/07:00am 18.2 CALM 0 1 1016.8 - 0.0 - Mostly clear 10 - - - -
30/06:30am 18.0 W 3 5 1016.3 - 0.0 - Mostly clear 10 - - - -
30/06:00am 17.3 CALM 0 0 1015.8 - 0.0 - Mostly clear 10 - - - -
30/05:30am 17.7 WNW 3 4 1015.6 - 0.0 - Mostly clear 10 - - - -
30/05:00am 17.6 CALM 0 0 1015.4 - 0.0 - Mostly clear 10 - - - -
30/04:30am 17.4 CALM 0 0 1015.4 - 0.0 - Mostly clear 10 - - - -
30/04:00am 17.6 CALM 0 0 1015.3 - 0.0 - Mostly clear 10 - - - -
30/03:30am 18.0 WNW 3 4 1015.3 - 0.0 - Mostly clear 10 - - - -
30/03:00am 18.4 CALM 0 0 1015.4 - 0.0 - Mostly clear 10 - - - -
30/02:30am 18.0 CALM 0 0 1015.8 - 0.0 - - - - - - -
30/02:00am 18.6 CALM 0 0 1016.1 - 0.0 - Mostly clear 10 - - - -
30/01:30am 19.1 WSW 4 5 1016.3 - 0.0 - Mostly clear 10 - - - -
30/01:00am 18.6 WNW 1 4 1016.6 - 0.0 - Mostly clear 10 - - - -
30/12:30am 18.9 CALM 0 0 1016.8 - 0.0 - Mostly clear 10 - - - -
30/12:00am 19.4 WNW 4 5 1016.9 - 0.0 - Mostly clear 10 - - - -
 
Date/Time
EST
Temp

°C
Wind Pressure Rain
since 9am
mm
Weather Cloud Vis
km
Sea
Height
m
Swell
Dir
 
Speed
knots
Gust
knots
hPa Trend Height
m
Period
s
Dir
29/11:30pm 20.4 CALM 0 3 1017.3 - 0.0 - Mostly clear 10 - - - -
29/11:00pm 19.5 CALM 0 3 1017.4 - 0.0 - Mostly clear 10 - - - -
29/10:30pm 20.5 NE 4 7 1017.4 - 0.0 - Mostly clear 10 - - - -
29/10:00pm 22.2 S 5 7 1017.5 - 0.0 - Mostly clear 10 - - - -
29/09:30pm 22.4 S 6 8 1017.7 - 0.0 - Mostly clear 10 - - - -
29/09:00pm 22.2 S 5 7 1017.5 - 0.0 - Mostly clear 10 - - - -
29/08:30pm 22.1 S 6 8 1017.4 - 0.0 - Mostly clear 10 - - - -
29/08:00pm 22.2 S 6 8 1017.1 - 0.0 - Mostly clear 10 - - - -
29/07:30pm 22.4 S 5 8 1016.8 - 0.0 - Mostly clear 10 - - - -
29/07:00pm 22.8 SE 5 7 1016.5 - 0.0 - Mostly clear 10 - - - -
29/06:30pm 23.6 SW 4 6 1016.1 - 0.0 - Mostly clear 10 - - - -
29/06:00pm 24.2 SSE 5 7 1015.8 - 0.0 - Mostly clear 10 - - - -
29/05:30pm 25.6 E 8 12 1015.7 - 0.0 - Mostly clear 10 - - - -
29/05:00pm 26.2 E 10 14 1015.6 - 0.0 - Mostly clear 10 - - - -
29/04:30pm 26.6 E 11 15 1015.6 - 0.0 - Mostly clear 10 - - - -
29/04:00pm 27.2 E 12 15 1015.5 - 0.0 - Mostly clear 10 - - - -
29/03:30pm 27.1 E 13 16 1015.7 - 0.0 - Mostly clear 10 - - - -
29/03:00pm 27.7 E 13 18 1015.8 F 0.0 Fine Mostly clear 30 - - - -
29/02:30pm 27.7 ESE 11 16 1016.3 - 0.0 - Mostly clear 10 - - - -
29/02:00pm 27.8 E 13 16 1016.7 - 0.0 - Mostly clear 10 - - - -
29/01:30pm 28.0 ESE 11 14 1017.1 - 0.0 - Mostly clear 10 - - - -
29/01:00pm 27.7 E 11 17 1017.6 - 0.0 - Mostly clear 10 - - - -
29/12:30pm 27.9 ESE 11 15 1018.0 - 0.0 - Mostly clear 10 - - - -
29/12:00pm 26.9 ESE 12 15 1018.5 - 0.0 - Mostly cloudy 10 - - - -
29/11:30am 26.7 SSE 9 15 1019.0 - 0.0 - Mostly clear 10 - - - -
29/11:00am 27.2 ESE 9 14 1019.5 - 0.0 - Mostly clear 10 - - - -
29/10:30am 26.2 ESE 9 13 1019.8 - 0.0 - Mostly clear 10 - - - -
29/10:00am 25.4 SSE 8 11 1020.1 - 0.0 - Mostly clear 10 - - - -
29/09:30am 25.0 SSE 8 11 1020.0 - 0.0 - Partly cloudy 10 - - - -
29/09:00am 24.5 SSE 9 11 1019.7 R 0.0 Fine Partly cloudy 30 - - - -
29/08:30am 24.4 S 7 9 1019.4 - 0.0 - Mostly clear 10 - - - -
29/08:00am 22.6 SSE 7 10 1019.2 - 0.0 - Mostly clear 10 - - - -

Other Formats:

Comma delimited format used in spreadsheet applications
http://www.bom.gov.au/fwo/IDQ60701/IDQ60701.94287.axf

JavaScript Object Notation format (JSON) in row-major order
http://www.bom.gov.au/fwo/IDQ60701/IDQ60701.94287.json